createdAt,value
2018-02-16T00:03:13.500Z,25.13
2018-02-16T00:05:41.811Z,22.50
2018-02-16T00:08:09.386Z,28.67
2018-02-16T00:10:36.948Z,22.40
2018-02-16T00:13:04.498Z,25.00
2018-02-16T00:15:32.157Z,24.50
2018-02-16T00:17:59.699Z,24.80
2018-02-16T00:20:27.300Z,25.30
2018-02-16T00:22:54.840Z,25.20
2018-02-16T00:25:22.776Z,20.17
2018-02-16T00:27:50.404Z,23.10
2018-02-16T00:30:17.965Z,22.93
2018-02-16T00:32:45.547Z,22.97
2018-02-16T00:35:13.088Z,29.17
2018-02-16T00:37:40.661Z,20.37
2018-02-16T00:40:08.241Z,24.87
2018-02-16T00:42:36.644Z,23.20
2018-02-16T00:45:04.185Z,19.70
2018-02-16T00:47:32.183Z,24.70
2018-02-16T00:49:59.732Z,25.33
2018-02-16T00:52:27.271Z,33.40
2018-02-16T00:54:54.844Z,25.20
2018-02-16T00:57:22.384Z,24.57
2018-02-16T00:59:49.989Z,20.43
2018-02-16T01:02:17.514Z,24.27
2018-02-16T01:04:45.105Z,28.87
2018-02-16T01:07:12.641Z,23.43
2018-02-16T01:09:40.208Z,26.40
2018-02-16T01:12:07.745Z,24.30
2018-02-16T01:14:35.648Z,25.07
2018-02-16T01:17:03.189Z,23.77
2018-02-16T01:19:30.720Z,23.40
2018-02-16T01:21:59.100Z,26.30
2018-02-16T01:24:27.413Z,26.47
2018-02-16T01:26:55.049Z,28.37
2018-02-16T01:29:22.592Z,23.50
2018-02-16T01:31:50.943Z,25.17
2018-02-16T01:34:18.488Z,24.97
2018-02-16T01:36:46.390Z,27.30
2018-02-16T01:39:14.698Z,26.83
2018-02-16T01:41:42.264Z,27.80
2018-02-16T01:44:09.859Z,26.53
2018-02-16T01:46:37.485Z,25.77
2018-02-16T01:49:05.056Z,28.10
2018-02-16T01:51:32.603Z,27.60
2018-02-16T01:54:00.175Z,28.30
2018-02-16T01:56:27.731Z,27.83
2018-02-16T01:58:55.324Z,25.90
2018-02-16T02:01:22.902Z,25.40
2018-02-16T02:03:51.562Z,31.57
2018-02-16T02:06:19.112Z,27.50
2018-02-16T02:08:46.643Z,26.23
2018-02-16T02:11:14.261Z,18.10
2018-02-16T02:13:41.796Z,26.20
2018-02-16T02:16:09.373Z,29.70
2018-02-16T02:18:36.905Z,30.80
2018-02-16T02:21:04.476Z,30.50
2018-02-16T02:23:32.016Z,29.00
2018-02-16T02:25:59.889Z,31.87
2018-02-16T02:28:27.529Z,32.13
2018-02-16T02:30:55.064Z,33.40
2018-02-16T02:33:23.413Z,32.30
2018-02-16T02:35:50.994Z,30.80
2018-02-16T02:38:19.832Z,28.37
2018-02-16T02:40:47.433Z,26.83
2018-02-16T02:43:14.972Z,35.47
2018-02-16T02:45:42.557Z,34.70
2018-02-16T02:48:10.097Z,28.47
2018-02-16T02:50:37.693Z,30.80
2018-02-16T02:53:05.218Z,9.33
2018-02-16T02:55:32.797Z,38.80
2018-02-16T02:58:00.328Z,29.67
2018-02-16T03:00:27.929Z,30.90
2018-02-16T03:02:55.469Z,25.97
2018-02-16T03:05:23.849Z,32.93
2018-02-16T03:07:51.384Z,31.00
2018-02-16T03:10:19.277Z,33.03
2018-02-16T03:12:47.590Z,35.83
2018-02-16T03:15:15.130Z,33.47
2018-02-16T03:17:42.703Z,37.30
2018-02-16T03:20:10.233Z,38.50
2018-02-16T03:22:37.893Z,39.80
2018-02-16T03:25:05.450Z,35.40
2018-02-16T03:27:33.786Z,33.13
2018-02-16T03:30:01.393Z,35.63
2018-02-16T03:32:30.045Z,35.17
2018-02-16T03:34:57.673Z,36.07
2018-02-16T03:37:25.205Z,37.83
2018-02-16T03:39:53.554Z,43.17
2018-02-16T03:42:21.102Z,35.53
2018-02-16T03:44:48.692Z,32.87
2018-02-16T03:47:16.236Z,33.37
2018-02-16T03:49:43.833Z,31.40
2018-02-16T03:52:11.378Z,34.10
2018-02-16T03:54:40.009Z,34.10
2018-02-16T03:57:07.562Z,31.23
2018-02-16T03:59:35.104Z,38.20
2018-02-16T04:02:02.695Z,33.60
2018-02-16T04:04:30.238Z,36.60
2018-02-16T04:06:58.112Z,36.77
2018-02-16T04:09:25.651Z,37.00
2018-02-16T04:11:53.183Z,37.13
2018-02-16T04:14:20.756Z,36.93
2018-02-16T04:16:48.294Z,38.53
2018-02-16T04:19:15.920Z,31.17
2018-02-16T04:21:43.448Z,34.10
2018-02-16T04:24:11.021Z,35.87
2018-02-16T04:26:38.556Z,37.60
2018-02-16T04:29:06.458Z,39.20
2018-02-16T04:31:33.989Z,36.93
2018-02-16T04:34:01.528Z,34.60
2018-02-16T04:36:29.112Z,42.13
2018-02-16T04:38:56.653Z,35.77
2018-02-16T04:41:24.231Z,37.80
2018-02-16T04:43:51.769Z,37.17
2018-02-16T04:46:19.759Z,33.57
2018-02-16T04:48:47.319Z,36.27
2018-02-16T04:51:14.865Z,36.73
2018-02-16T04:53:42.444Z,31.73
2018-02-16T04:56:09.984Z,37.73
2018-02-16T04:58:37.760Z,49.23
2018-02-16T05:01:05.328Z,40.37
2018-02-16T05:03:32.927Z,33.17
2018-02-16T05:06:00.476Z,37.53
2018-02-16T05:08:28.421Z,41.17
2018-02-16T05:10:55.953Z,41.80
2018-02-16T05:13:23.492Z,35.33
2018-02-16T05:15:51.075Z,34.33
2018-02-16T05:18:18.611Z,36.87
2018-02-16T05:20:46.177Z,38.20
2018-02-16T05:23:14.479Z,36.90
2018-02-16T05:25:42.053Z,38.73
2018-02-16T05:28:09.588Z,40.47
2018-02-16T05:30:37.772Z,45.83
2018-02-16T05:33:05.313Z,37.67
2018-02-16T05:35:32.872Z,38.77
2018-02-16T05:38:00.484Z,39.73
2018-02-16T05:40:28.044Z,41.27
2018-02-16T05:42:55.710Z,42.40
2018-02-16T05:45:23.245Z,42.50
2018-02-16T05:47:51.229Z,38.00
2018-02-16T05:50:18.774Z,43.17
2018-02-16T05:52:46.312Z,38.90
2018-02-16T05:55:13.936Z,37.90
2018-02-16T05:57:41.528Z,41.30
2018-02-16T06:00:09.418Z,39.60
2018-02-16T06:02:36.968Z,44.20
2018-02-16T06:05:04.501Z,43.03
2018-02-16T06:07:32.848Z,43.63
2018-02-16T06:10:00.391Z,40.87
2018-02-16T06:12:27.967Z,45.43
2018-02-16T06:14:55.543Z,43.27
2018-02-16T06:17:23.897Z,42.50
2018-02-16T06:19:51.461Z,40.43
2018-02-16T06:22:21.663Z,48.77
2018-02-16T06:24:49.257Z,51.10
2018-02-16T06:27:16.800Z,43.60
2018-02-16T06:29:44.384Z,50.20
2018-02-16T06:32:11.925Z,40.53
2018-02-16T06:34:39.559Z,41.27
2018-02-16T06:37:07.111Z,43.90
2018-02-16T06:39:34.681Z,42.30
2018-02-16T06:42:02.214Z,59.33
2018-02-16T06:44:30.070Z,43.20
2018-02-16T06:46:57.636Z,47.73
2018-02-16T06:49:25.176Z,37.30
2018-02-16T06:51:53.517Z,42.50
2018-02-16T06:54:21.052Z,45.03
2018-02-16T06:56:48.629Z,39.33
2018-02-16T06:59:16.168Z,47.33
2018-02-16T07:01:43.732Z,49.97
2018-02-16T07:04:11.281Z,37.90
2018-02-16T07:06:38.853Z,39.87
2018-02-16T07:09:06.412Z,46.37
2018-02-16T07:11:34.280Z,49.63
2018-02-16T07:14:01.845Z,58.73
2018-02-16T07:16:29.384Z,43.30
2018-02-16T07:18:56.968Z,42.30
2018-02-16T07:21:24.509Z,44.50
2018-02-16T07:23:52.078Z,43.83
2018-02-16T07:26:19.625Z,41.67
2018-02-16T07:28:47.349Z,37.33
2018-02-16T07:31:14.966Z,41.37
2018-02-16T07:33:42.558Z,44.47
2018-02-16T07:36:10.888Z,48.70
2018-02-16T07:38:38.425Z,41.87
2018-02-16T07:41:05.999Z,41.50
2018-02-16T07:43:33.559Z,51.10
2018-02-16T07:46:01.358Z,53.00
2018-02-16T07:48:28.908Z,42.03
2018-02-16T07:50:56.748Z,55.40
2018-02-16T07:53:24.287Z,51.80
2018-02-16T07:55:51.822Z,42.87
2018-02-16T07:58:20.167Z,50.87
2018-02-16T08:00:47.712Z,42.13
2018-02-16T08:03:15.281Z,40.67
2018-02-16T08:05:42.817Z,41.30
2018-02-16T08:08:10.701Z,45.27
2018-02-16T08:10:38.254Z,44.50
2018-02-16T08:13:05.808Z,40.33
2018-02-16T08:15:33.384Z,40.33
2018-02-16T08:18:00.927Z,39.10
2018-02-16T08:20:28.497Z,40.00
2018-02-16T08:22:56.041Z,47.17
2018-02-16T08:25:23.619Z,34.90
2018-02-16T08:27:51.203Z,37.83
2018-02-16T08:30:19.249Z,36.33
2018-02-16T08:32:46.799Z,39.03
2018-02-16T08:35:14.328Z,38.10
2018-02-16T08:37:42.039Z,40.10
2018-02-16T08:40:09.597Z,29.17
2018-02-16T08:42:37.197Z,34.23
2018-02-16T08:45:05.515Z,45.93
2018-02-16T08:47:33.088Z,36.90
2018-02-16T08:50:00.681Z,35.83
2018-02-16T08:52:28.526Z,28.17
2018-02-16T08:54:56.076Z,49.83
2018-02-16T08:57:23.905Z,42.83
2018-02-16T08:59:51.484Z,36.77
2018-02-16T09:02:19.025Z,32.07
2018-02-16T09:04:48.131Z,35.43
2018-02-16T09:07:15.688Z,31.97
2018-02-16T09:09:43.232Z,32.37
2018-02-16T09:12:10.985Z,38.93
2018-02-16T09:14:39.283Z,39.00
2018-02-16T09:17:08.736Z,38.10
2018-02-16T09:19:36.276Z,39.10
2018-02-16T09:22:04.251Z,33.70
2018-02-16T09:24:31.812Z,37.70
2018-02-16T09:26:59.610Z,26.20
2018-02-16T09:29:27.968Z,32.60
2018-02-16T09:31:55.517Z,32.70
2018-02-16T09:34:23.110Z,36.43
2018-02-16T09:36:51.049Z,45.23
2018-02-16T09:39:19.564Z,53.70
2018-02-16T09:41:47.896Z,35.60
2018-02-16T09:44:15.866Z,36.60
2018-02-16T09:46:43.418Z,28.90
2018-02-16T09:49:11.020Z,34.53
2018-02-16T09:51:39.365Z,30.90
2018-02-16T09:54:06.913Z,36.30
2018-02-16T09:56:34.497Z,29.90
2018-02-16T09:59:02.036Z,35.97
2018-02-16T10:01:29.901Z,34.87
2018-02-16T10:03:57.448Z,31.70
2018-02-16T10:06:24.999Z,32.97
2018-02-16T10:08:52.578Z,27.63
2018-02-16T10:11:20.225Z,40.27
2018-02-16T10:13:47.868Z,30.67
2018-02-16T10:16:15.421Z,29.90
2018-02-16T10:18:43.012Z,26.17
2018-02-16T10:21:10.762Z,35.33
2018-02-16T10:23:38.345Z,29.83
2018-02-16T10:26:05.901Z,25.70
2018-02-16T10:28:33.748Z,20.57
2018-02-16T10:31:01.354Z,30.20
2018-02-16T10:33:28.920Z,32.80
2018-02-16T10:35:56.497Z,27.57
2018-02-16T10:38:24.218Z,31.67
2018-02-16T10:40:51.811Z,31.73
2018-02-16T10:43:19.373Z,30.10
2018-02-16T10:45:48.012Z,37.83
2018-02-16T10:48:15.548Z,42.13
2018-02-16T10:50:43.106Z,29.70
2018-02-16T10:53:10.684Z,35.37
2018-02-16T10:55:38.227Z,37.53
2018-02-16T10:58:06.130Z,31.60
2018-02-16T11:00:39.225Z,25.87
2018-02-16T11:03:12.712Z,23.47
2018-02-16T11:05:46.685Z,25.37
2018-02-16T11:08:20.126Z,28.90
2018-02-16T11:10:47.677Z,23.80
2018-02-16T11:13:15.237Z,21.27
2018-02-16T11:15:42.819Z,26.53
2018-02-16T11:18:10.357Z,28.83
2018-02-16T11:20:37.991Z,29.60
2018-02-16T11:23:05.589Z,21.43
2018-02-16T11:25:34.955Z,22.83
2018-02-16T11:28:02.493Z,26.57
2018-02-16T11:30:30.409Z,18.43
2018-02-16T11:32:58.094Z,19.83
2018-02-16T11:35:25.650Z,19.63
2018-02-16T11:37:53.232Z,23.20
2018-02-16T11:40:20.918Z,16.77
2018-02-16T11:42:49.270Z,19.17
2018-02-16T11:45:16.933Z,17.33
2018-02-16T11:47:45.266Z,26.03
2018-02-16T11:50:12.818Z,19.40
2018-02-16T11:52:40.411Z,21.03
2018-02-16T11:55:07.952Z,26.13
2018-02-16T11:57:35.536Z,16.83
2018-02-16T12:00:03.111Z,27.87
2018-02-16T12:02:31.751Z,18.57
2018-02-16T12:04:59.393Z,20.77
2018-02-16T12:07:26.932Z,21.93
2018-02-16T12:09:54.506Z,14.57
2018-02-16T12:12:22.063Z,20.80
2018-02-16T12:14:49.665Z,21.93
2018-02-16T12:17:17.225Z,27.17
2018-02-16T12:19:45.359Z,19.13
2018-02-16T12:22:12.889Z,21.33
2018-02-16T12:24:40.440Z,16.30
2018-02-16T12:27:08.210Z,21.53
2018-02-16T12:29:36.509Z,14.10
2018-02-16T12:32:04.097Z,29.27
2018-02-16T12:34:31.738Z,19.50
2018-02-16T12:36:59.356Z,15.33
2018-02-16T12:39:26.888Z,12.93
2018-02-16T12:41:54.488Z,15.27
2018-02-16T12:44:22.020Z,30.50
2018-02-16T12:46:49.855Z,21.57
2018-02-16T12:49:17.387Z,21.43
2018-02-16T12:51:44.933Z,15.40
2018-02-16T12:54:12.622Z,14.87
2018-02-16T12:56:40.180Z,11.07
2018-02-16T12:59:07.793Z,18.53
2018-02-16T13:01:35.336Z,7.77
2018-02-16T13:04:03.066Z,21.00
2018-02-16T13:06:30.736Z,12.03
2018-02-16T13:08:58.319Z,18.50
2018-02-16T13:11:25.917Z,18.13
2018-02-16T13:13:53.492Z,39.47
2018-02-16T13:16:21.022Z,17.80
2018-02-16T13:18:49.058Z,17.23
2018-02-16T13:21:16.556Z,20.50
2018-02-16T13:23:44.853Z,17.63
2018-02-16T13:26:12.444Z,24.43
2018-02-16T13:28:39.992Z,22.63
2018-02-16T13:31:07.979Z,25.50
2018-02-16T13:33:35.530Z,20.20
2018-02-16T13:36:03.079Z,28.47
2018-02-16T13:38:30.653Z,26.57
2018-02-16T13:40:58.211Z,33.40
2018-02-16T13:43:25.789Z,27.20
2018-02-16T13:45:53.326Z,25.07
2018-02-16T13:48:20.916Z,26.30
2018-02-16T13:50:48.461Z,24.00
2018-02-16T13:53:16.575Z,23.93
2018-02-16T13:55:44.126Z,20.20
2018-02-16T13:58:11.689Z,15.90
2018-02-16T14:00:40.050Z,16.50
2018-02-16T14:03:08.311Z,30.70
2018-02-16T14:05:35.915Z,10.53
2018-02-16T14:08:04.554Z,15.70
2018-02-16T14:10:32.146Z,26.90
2018-02-16T14:12:59.707Z,14.63
2018-02-16T14:15:28.038Z,27.17
2018-02-16T14:17:55.568Z,30.80
2018-02-16T14:20:23.565Z,28.30
2018-02-16T14:22:51.117Z,13.73
2018-02-16T14:25:18.671Z,16.87
2018-02-16T14:27:46.249Z,25.37
2018-02-16T14:30:13.806Z,23.33
2018-02-16T14:32:41.780Z,27.43
2018-02-16T14:35:09.317Z,22.87
2018-02-16T14:37:36.874Z,27.53
2018-02-16T14:40:04.517Z,23.77
2018-02-16T14:42:32.202Z,20.00
2018-02-16T14:44:59.790Z,27.07
2018-02-16T14:47:27.324Z,25.67
2018-02-16T14:49:55.208Z,28.03
2018-02-16T14:52:22.750Z,38.03
2018-02-16T14:54:50.306Z,28.27
2018-02-16T14:57:17.897Z,24.60
2018-02-16T14:59:45.532Z,24.30
2018-02-16T15:02:13.135Z,19.80
2018-02-16T15:04:40.730Z,35.77
2018-02-16T15:07:09.090Z,36.37
2018-02-16T15:09:37.391Z,30.83
2018-02-16T15:12:04.985Z,33.73
2018-02-16T15:14:32.565Z,26.77
2018-02-16T15:17:00.528Z,31.33
2018-02-16T15:19:28.081Z,28.07
2018-02-16T15:21:55.651Z,24.53
2018-02-16T15:24:23.247Z,24.70
2018-02-16T15:26:50.800Z,29.40
2018-02-16T15:29:18.390Z,28.60
2018-02-16T15:31:45.947Z,28.00
2018-02-16T15:34:13.527Z,29.43
2018-02-16T15:36:41.068Z,25.00
2018-02-16T15:39:08.948Z,45.07
2018-02-16T15:41:36.509Z,30.60
2018-02-16T15:44:04.061Z,27.20
2018-02-16T15:46:31.641Z,32.00
2018-02-16T15:48:59.193Z,26.23
2018-02-16T15:51:26.912Z,36.87
2018-02-16T15:53:55.338Z,29.70
2018-02-16T15:56:23.748Z,37.83
2018-02-16T15:58:51.281Z,21.93
2018-02-16T16:01:18.856Z,28.03
2018-02-16T16:03:46.386Z,29.50
2018-02-16T16:06:13.943Z,32.13
2018-02-16T16:08:41.540Z,31.17
2018-02-16T16:11:09.183Z,32.50
2018-02-16T16:13:36.774Z,25.27
2018-02-16T16:16:05.079Z,29.70
2018-02-16T16:18:32.669Z,33.07
2018-02-16T16:21:00.217Z,28.40
2018-02-16T16:23:28.102Z,47.30
2018-02-16T16:25:55.656Z,24.13
2018-02-16T16:28:23.219Z,35.73
2018-02-16T16:30:50.801Z,25.93
2018-02-16T16:33:18.348Z,23.50
2018-02-16T16:35:45.920Z,36.13
2018-02-16T16:38:13.463Z,35.90
2018-02-16T16:40:41.044Z,21.67
2018-02-16T16:43:08.588Z,29.43
2018-02-16T16:45:36.162Z,33.17
2018-02-16T16:48:03.710Z,28.43
2018-02-16T16:50:31.538Z,32.50
2018-02-16T16:52:59.111Z,33.27
2018-02-16T16:55:27.082Z,40.67
2018-02-16T16:57:54.625Z,54.43
2018-02-16T17:00:22.225Z,64.20
2018-02-16T17:02:49.847Z,37.30
2018-02-16T17:05:17.507Z,27.57
2018-02-16T17:07:45.106Z,38.20
2018-02-16T17:10:12.640Z,36.90
2018-02-16T17:12:40.212Z,34.37
2018-02-16T17:15:07.752Z,47.00
2018-02-16T17:17:35.802Z,39.33
2018-02-16T17:20:03.341Z,43.40
2018-02-16T17:22:31.681Z,38.67
2018-02-16T17:24:59.285Z,46.87
2018-02-16T17:27:27.777Z,34.03
2018-02-16T17:29:55.365Z,44.80
2018-02-16T17:32:22.910Z,39.57
2018-02-16T17:34:50.533Z,35.87
2018-02-16T17:37:18.845Z,27.80
2018-02-16T17:39:46.801Z,31.80
2018-02-16T17:42:14.338Z,34.60
2018-02-16T17:44:41.881Z,32.70
2018-02-16T17:47:09.503Z,33.17
2018-02-16T17:49:37.058Z,47.00
2018-02-16T17:52:04.645Z,33.57
2018-02-16T17:54:32.185Z,39.93
2018-02-16T17:56:59.756Z,34.63
2018-02-16T17:59:27.363Z,36.70
2018-02-16T18:01:55.725Z,36.23
2018-02-16T18:04:23.310Z,42.97
2018-02-16T18:06:51.176Z,32.10
2018-02-16T18:09:19.493Z,43.67
2018-02-16T18:11:47.047Z,37.17
2018-02-16T18:14:14.696Z,31.67
2018-02-16T18:16:42.462Z,36.40
2018-02-16T18:19:10.053Z,44.57
2018-02-16T18:21:37.591Z,47.17
2018-02-16T18:24:05.169Z,51.67
2018-02-16T18:26:32.729Z,43.50
2018-02-16T18:29:00.305Z,56.40
2018-02-16T18:31:27.919Z,44.57
2018-02-16T18:33:55.461Z,38.50
2018-02-16T18:36:23.038Z,38.10
2018-02-16T18:38:50.588Z,40.53
2018-02-16T18:41:18.183Z,40.13
2018-02-16T18:43:45.737Z,33.53
2018-02-16T18:46:13.382Z,40.03
2018-02-16T18:48:40.946Z,41.23
2018-02-16T18:51:08.538Z,36.27
2018-02-16T18:53:36.161Z,38.10
2018-02-16T18:56:04.151Z,44.23
2018-02-16T18:58:31.688Z,34.07
2018-02-16T19:00:59.376Z,42.17
2018-02-16T19:03:26.966Z,27.03
2018-02-16T19:05:55.280Z,31.27
2018-02-16T19:08:22.893Z,34.47
2018-02-16T19:10:50.436Z,41.90
2018-02-16T19:13:18.618Z,26.83
2018-02-16T19:15:46.169Z,35.80
2018-02-16T19:18:13.881Z,48.73
2018-02-16T19:20:41.670Z,35.57
2018-02-16T19:23:09.223Z,46.80
2018-02-16T19:25:37.065Z,35.77
2018-02-16T19:28:05.380Z,34.00
2018-02-16T19:30:32.931Z,39.90
2018-02-16T19:33:00.538Z,33.83
2018-02-16T19:35:28.078Z,39.53
2018-02-16T19:37:55.661Z,29.30
2018-02-16T19:40:23.197Z,36.93
2018-02-16T19:42:50.772Z,42.60
2018-02-16T19:45:18.329Z,36.93
2018-02-16T19:47:46.285Z,25.77
2018-02-16T19:50:13.858Z,42.70
2018-02-16T19:52:41.405Z,41.47
2018-02-16T19:55:08.994Z,39.57
2018-02-16T19:57:36.565Z,45.67
2018-02-16T20:00:04.897Z,34.97
2018-02-16T20:02:32.503Z,31.93
2018-02-16T20:05:00.070Z,38.80
2018-02-16T20:07:27.623Z,33.97
2018-02-16T20:09:55.667Z,30.43
2018-02-16T20:12:23.215Z,31.70
2018-02-16T20:14:50.769Z,25.80
2018-02-16T20:17:18.344Z,37.03
2018-02-16T20:19:45.888Z,40.83
2018-02-16T20:22:13.493Z,28.53
2018-02-16T20:24:41.805Z,25.90
2018-02-16T20:27:10.510Z,30.43
2018-02-16T20:29:38.036Z,32.60
2018-02-16T20:32:05.584Z,36.03
2018-02-16T20:34:33.302Z,26.87
2018-02-16T20:37:00.842Z,27.53
2018-02-16T20:39:28.419Z,29.47
2018-02-16T20:41:55.966Z,37.93
2018-02-16T20:44:23.548Z,26.20
2018-02-16T20:46:51.099Z,26.70
2018-02-16T20:49:18.717Z,25.20
2018-02-16T20:51:46.280Z,36.10
2018-02-16T20:54:14.189Z,28.50
2018-02-16T20:56:41.740Z,31.20
2018-02-16T20:59:09.268Z,37.80
2018-02-16T21:01:36.857Z,34.60
2018-02-16T21:04:04.465Z,35.33
2018-02-16T21:06:32.855Z,31.80
2018-02-16T21:09:00.509Z,37.20
2018-02-16T21:11:28.105Z,25.87
2018-02-16T21:13:56.409Z,30.43
2018-02-16T21:16:24.010Z,24.90
2018-02-16T21:18:51.586Z,26.80
2018-02-16T21:21:19.189Z,37.80
2018-02-16T21:23:46.762Z,28.63
2018-02-16T21:26:15.159Z,21.87
2018-02-16T21:28:43.003Z,25.03
2018-02-16T21:31:10.560Z,29.97
2018-02-16T21:33:38.112Z,28.43
2018-02-16T21:36:05.701Z,41.10
2018-02-16T21:38:34.004Z,36.27
2018-02-16T21:41:01.907Z,30.20
2018-02-16T21:43:29.441Z,37.47
2018-02-16T21:45:56.981Z,32.13
2018-02-16T21:48:24.564Z,30.40
2018-02-16T21:50:52.126Z,34.93
2018-02-16T21:53:19.711Z,36.27
2018-02-16T21:55:47.262Z,33.47
2018-02-16T21:58:14.857Z,34.97
2018-02-16T22:00:43.156Z,40.03
2018-02-16T22:03:10.733Z,38.17
2018-02-16T22:05:38.280Z,33.27
2018-02-16T22:08:06.345Z,32.17
2018-02-16T22:10:33.888Z,34.00
2018-02-16T22:13:01.473Z,37.67
2018-02-16T22:15:29.082Z,29.47
2018-02-16T22:17:56.632Z,44.17
2018-02-16T22:20:24.221Z,35.17
2018-02-16T22:22:52.561Z,28.80
2018-02-16T22:25:20.180Z,32.67
2018-02-16T22:27:48.562Z,31.47
2018-02-16T22:30:16.457Z,26.63
2018-02-16T22:32:43.996Z,30.33
2018-02-16T22:35:11.663Z,34.73
2018-02-16T22:37:39.250Z,33.03
2018-02-16T22:40:06.788Z,35.83
2018-02-16T22:42:34.395Z,32.27
2018-02-16T22:45:01.930Z,33.87
2018-02-16T22:47:29.610Z,33.73
2018-02-16T22:49:57.142Z,33.17
2018-02-16T22:52:24.754Z,33.57
2018-02-16T22:54:53.041Z,42.17
2018-02-16T22:57:20.972Z,32.13
2018-02-16T22:59:48.518Z,30.17
2018-02-16T23:02:16.073Z,27.93
2018-02-16T23:04:43.705Z,37.50
2018-02-16T23:07:11.247Z,41.83
2018-02-16T23:09:38.819Z,42.10
2018-02-16T23:12:07.077Z,29.60
2018-02-16T23:14:34.668Z,30.87
2018-02-16T23:17:02.215Z,30.80
2018-02-16T23:19:30.111Z,35.33
2018-02-16T23:21:59.392Z,37.70
2018-02-16T23:24:26.941Z,33.50
2018-02-16T23:26:54.539Z,32.50
2018-02-16T23:29:22.117Z,22.93
2018-02-16T23:31:49.697Z,39.90
2018-02-16T23:34:17.993Z,34.90
2018-02-16T23:36:45.840Z,32.90
2018-02-16T23:39:14.178Z,29.20
2018-02-16T23:41:41.885Z,42.67
2018-02-16T23:44:09.455Z,36.40
2018-02-16T23:46:36.997Z,34.10
2018-02-16T23:49:04.578Z,27.60
2018-02-16T23:51:32.118Z,34.27
2018-02-16T23:53:59.709Z,27.07
2018-02-16T23:56:27.258Z,35.03
2018-02-16T23:58:55.309Z,37.20
